sensor_id;sensor_type;location;lat;lon;timestamp;P1;durP1;ratioP1;P2;durP2;ratioP2
4597;SDS011;62772;48.646;8.906;2022-10-03T00:05:08;4.27;;;3.23;;
4597;SDS011;62772;48.646;8.906;2022-10-03T00:10:28;5.10;;;2.47;;
4597;SDS011;62772;48.646;8.906;2022-10-03T00:15:39;3.57;;;2.27;;
4597;SDS011;62772;48.646;8.906;2022-10-03T00:20:59;3.67;;;2.40;;
4597;SDS011;62772;48.646;8.906;2022-10-03T00:26:10;4.03;;;2.50;;
4597;SDS011;62772;48.646;8.906;2022-10-03T00:31:34;3.50;;;2.50;;
4597;SDS011;62772;48.646;8.906;2022-10-03T00:36:45;3.03;;;1.97;;
4597;SDS011;62772;48.646;8.906;2022-10-03T00:47:51;3.80;;;2.33;;
4597;SDS011;62772;48.646;8.906;2022-10-03T00:53:23;3.43;;;2.20;;
4597;SDS011;62772;48.646;8.906;2022-10-03T00:58:40;3.53;;;2.30;;
4597;SDS011;62772;48.646;8.906;2022-10-03T01:03:54;4.00;;;2.40;;
4597;SDS011;62772;48.646;8.906;2022-10-03T01:09:14;7.23;;;3.13;;
4597;SDS011;62772;48.646;8.906;2022-10-03T01:14:24;6.47;;;2.70;;
4597;SDS011;62772;48.646;8.906;2022-10-03T01:19:51;4.13;;;2.70;;
4597;SDS011;62772;48.646;8.906;2022-10-03T01:25:14;7.80;;;2.60;;
4597;SDS011;62772;48.646;8.906;2022-10-03T01:30:21;9.13;;;2.83;;
4597;SDS011;62772;48.646;8.906;2022-10-03T01:35:26;8.17;;;3.20;;
4597;SDS011;62772;48.646;8.906;2022-10-03T01:40:36;3.90;;;2.83;;
4597;SDS011;62772;48.646;8.906;2022-10-03T01:45:46;3.90;;;2.60;;
4597;SDS011;62772;48.646;8.906;2022-10-03T01:50:58;3.53;;;2.60;;
4597;SDS011;62772;48.646;8.906;2022-10-03T01:56:04;3.63;;;2.20;;
4597;SDS011;62772;48.646;8.906;2022-10-03T02:01:18;2.90;;;1.87;;
4597;SDS011;62772;48.646;8.906;2022-10-03T02:06:26;5.43;;;2.23;;
4597;SDS011;62772;48.646;8.906;2022-10-03T02:11:35;5.50;;;2.00;;
4597;SDS011;62772;48.646;8.906;2022-10-03T02:16:43;3.40;;;2.40;;
4597;SDS011;62772;48.646;8.906;2022-10-03T02:21:53;3.53;;;2.20;;
4597;SDS011;62772;48.646;8.906;2022-10-03T02:32:42;6.80;;;2.60;;
4597;SDS011;62772;48.646;8.906;2022-10-03T02:38:07;3.80;;;2.57;;
4597;SDS011;62772;48.646;8.906;2022-10-03T02:43:33;3.90;;;2.90;;
4597;SDS011;62772;48.646;8.906;2022-10-03T02:49:11;5.30;;;3.47;;
4597;SDS011;62772;48.646;8.906;2022-10-03T02:54:34;5.73;;;3.57;;
4597;SDS011;62772;48.646;8.906;2022-10-03T02:59:55;4.63;;;2.70;;
4597;SDS011;62772;48.646;8.906;2022-10-03T03:05:18;4.40;;;3.07;;
4597;SDS011;62772;48.646;8.906;2022-10-03T03:10:30;4.77;;;2.80;;
4597;SDS011;62772;48.646;8.906;2022-10-03T03:21:22;6.50;;;3.13;;
4597;SDS011;62772;48.646;8.906;2022-10-03T03:32:01;5.80;;;3.63;;
4597;SDS011;62772;48.646;8.906;2022-10-03T03:37:15;7.80;;;4.30;;
4597;SDS011;62772;48.646;8.906;2022-10-03T03:42:34;12.20;;;4.80;;
4597;SDS011;62772;48.646;8.906;2022-10-03T03:47:53;12.90;;;5.33;;
4597;SDS011;62772;48.646;8.906;2022-10-03T03:53:21;10.43;;;5.67;;
4597;SDS011;62772;48.646;8.906;2022-10-03T03:58:40;11.93;;;5.33;;
4597;SDS011;62772;48.646;8.906;2022-10-03T04:03:53;10.17;;;5.73;;
4597;SDS011;62772;48.646;8.906;2022-10-03T04:09:17;12.60;;;5.80;;
4597;SDS011;62772;48.646;8.906;2022-10-03T04:20:13;9.43;;;5.00;;
4597;SDS011;62772;48.646;8.906;2022-10-03T04:25:38;10.37;;;5.70;;
4597;SDS011;62772;48.646;8.906;2022-10-03T04:30:52;8.80;;;5.37;;
4597;SDS011;62772;48.646;8.906;2022-10-03T04:36:12;13.67;;;5.20;;
4597;SDS011;62772;48.646;8.906;2022-10-03T04:41:30;18.03;;;5.10;;
4597;SDS011;62772;48.646;8.906;2022-10-03T04:46:41;14.80;;;6.37;;
4597;SDS011;62772;48.646;8.906;2022-10-03T04:51:51;12.23;;;6.20;;
4597;SDS011;62772;48.646;8.906;2022-10-03T04:57:01;10.97;;;5.87;;
4597;SDS011;62772;48.646;8.906;2022-10-03T05:02:08;11.90;;;6.40;;
4597;SDS011;62772;48.646;8.906;2022-10-03T05:07:27;21.03;;;6.87;;
4597;SDS011;62772;48.646;8.906;2022-10-03T05:12:46;14.87;;;7.17;;
4597;SDS011;62772;48.646;8.906;2022-10-03T05:17:58;9.17;;;6.00;;
4597;SDS011;62772;48.646;8.906;2022-10-03T05:23:08;13.10;;;7.40;;
4597;SDS011;62772;48.646;8.906;2022-10-03T05:28:22;18.67;;;9.60;;
4597;SDS011;62772;48.646;8.906;2022-10-03T05:33:37;27.63;;;14.00;;
4597;SDS011;62772;48.646;8.906;2022-10-03T05:39:14;13.83;;;7.40;;
4597;SDS011;62772;48.646;8.906;2022-10-03T05:44:31;14.00;;;6.83;;
4597;SDS011;62772;48.646;8.906;2022-10-03T05:49:53;15.90;;;9.07;;
4597;SDS011;62772;48.646;8.906;2022-10-03T05:55:16;9.97;;;7.00;;
4597;SDS011;62772;48.646;8.906;2022-10-03T06:00:32;15.03;;;6.73;;
4597;SDS011;62772;48.646;8.906;2022-10-03T06:05:53;16.90;;;8.47;;
4597;SDS011;62772;48.646;8.906;2022-10-03T06:11:04;14.40;;;8.60;;
4597;SDS011;62772;48.646;8.906;2022-10-03T06:16:23;17.23;;;9.87;;
4597;SDS011;62772;48.646;8.906;2022-10-03T06:27:28;17.03;;;9.47;;
4597;SDS011;62772;48.646;8.906;2022-10-03T07:01:00;20.70;;;11.30;;
4597;SDS011;62772;48.646;8.906;2022-10-03T07:12:04;30.10;;;12.73;;
4597;SDS011;62772;48.646;8.906;2022-10-03T07:17:35;31.40;;;14.60;;
4597;SDS011;62772;48.646;8.906;2022-10-03T07:22:48;34.90;;;15.43;;
4597;SDS011;62772;48.646;8.906;2022-10-03T07:45:22;36.10;;;15.50;;
4597;SDS011;62772;48.646;8.906;2022-10-03T07:50:45;43.63;;;14.93;;
4597;SDS011;62772;48.646;8.906;2022-10-03T07:55:56;31.27;;;14.27;;
4597;SDS011;62772;48.646;8.906;2022-10-03T08:01:07;35.03;;;17.47;;
4597;SDS011;62772;48.646;8.906;2022-10-03T08:06:32;39.70;;;16.70;;
4597;SDS011;62772;48.646;8.906;2022-10-03T08:11:50;32.50;;;16.00;;
4597;SDS011;62772;48.646;8.906;2022-10-03T08:22:58;27.00;;;14.27;;
4597;SDS011;62772;48.646;8.906;2022-10-03T08:39:29;30.60;;;16.80;;
4597;SDS011;62772;48.646;8.906;2022-10-03T08:45:04;37.73;;;18.53;;
4597;SDS011;62772;48.646;8.906;2022-10-03T08:56:07;28.00;;;15.60;;
4597;SDS011;62772;48.646;8.906;2022-10-03T09:01:28;30.60;;;17.33;;
4597;SDS011;62772;48.646;8.906;2022-10-03T09:23:17;33.47;;;18.27;;
4597;SDS011;62772;48.646;8.906;2022-10-03T09:28:43;32.43;;;14.20;;
4597;SDS011;62772;48.646;8.906;2022-10-03T09:34:09;22.33;;;13.77;;
4597;SDS011;62772;48.646;8.906;2022-10-03T09:56:20;23.27;;;12.60;;
4597;SDS011;62772;48.646;8.906;2022-10-03T10:01:42;21.07;;;13.07;;
4597;SDS011;62772;48.646;8.906;2022-10-03T10:12:44;21.10;;;12.00;;
4597;SDS011;62772;48.646;8.906;2022-10-03T10:18:07;19.77;;;13.13;;
4597;SDS011;62772;48.646;8.906;2022-10-03T10:23:40;22.60;;;12.83;;
4597;SDS011;62772;48.646;8.906;2022-10-03T10:28:59;21.60;;;12.70;;
4597;SDS011;62772;48.646;8.906;2022-10-03T10:40:22;19.43;;;11.20;;
4597;SDS011;62772;48.646;8.906;2022-10-03T10:45:48;25.50;;;11.50;;
4597;SDS011;62772;48.646;8.906;2022-10-03T10:56:59;20.67;;;11.03;;
4597;SDS011;62772;48.646;8.906;2022-10-03T11:25:08;15.83;;;9.10;;
4597;SDS011;62772;48.646;8.906;2022-10-03T11:30:55;16.17;;;9.20;;
4597;SDS011;62772;48.646;8.906;2022-10-03T11:41:55;13.37;;;8.00;;
4597;SDS011;62772;48.646;8.906;2022-10-03T11:47:19;14.57;;;7.93;;
4597;SDS011;62772;48.646;8.906;2022-10-03T11:52:45;12.50;;;7.87;;
4597;SDS011;62772;48.646;8.906;2022-10-03T11:58:02;11.40;;;7.50;;
4597;SDS011;62772;48.646;8.906;2022-10-03T12:03:19;10.97;;;7.10;;
4597;SDS011;62772;48.646;8.906;2022-10-03T12:08:28;10.23;;;6.63;;
4597;SDS011;62772;48.646;8.906;2022-10-03T12:14:00;11.70;;;6.60;;
4597;SDS011;62772;48.646;8.906;2022-10-03T12:19:14;9.77;;;6.23;;
4597;SDS011;62772;48.646;8.906;2022-10-03T12:24:32;10.87;;;6.73;;
4597;SDS011;62772;48.646;8.906;2022-10-03T12:29:39;10.03;;;5.90;;
4597;SDS011;62772;48.646;8.906;2022-10-03T12:35:00;11.23;;;6.40;;
4597;SDS011;62772;48.646;8.906;2022-10-03T12:40:20;12.93;;;6.63;;
4597;SDS011;62772;48.646;8.906;2022-10-03T12:45:28;10.50;;;6.53;;
4597;SDS011;62772;48.646;8.906;2022-10-03T12:50:38;9.80;;;6.37;;
4597;SDS011;62772;48.646;8.906;2022-10-03T12:55:52;11.90;;;7.50;;
4597;SDS011;62772;48.646;8.906;2022-10-03T13:01:02;13.33;;;7.30;;
4597;SDS011;62772;48.646;8.906;2022-10-03T13:06:19;14.80;;;7.27;;
4597;SDS011;62772;48.646;8.906;2022-10-03T13:11:44;12.20;;;7.43;;
4597;SDS011;62772;48.646;8.906;2022-10-03T13:16:57;13.60;;;7.27;;
4597;SDS011;62772;48.646;8.906;2022-10-03T13:22:10;12.90;;;7.60;;
4597;SDS011;62772;48.646;8.906;2022-10-03T13:27:33;13.43;;;6.30;;
4597;SDS011;62772;48.646;8.906;2022-10-03T13:32:37;11.83;;;6.23;;
4597;SDS011;62772;48.646;8.906;2022-10-03T13:37:44;10.53;;;6.00;;
4597;SDS011;62772;48.646;8.906;2022-10-03T13:43:09;12.87;;;6.50;;
4597;SDS011;62772;48.646;8.906;2022-10-03T13:48:15;12.67;;;6.23;;
4597;SDS011;62772;48.646;8.906;2022-10-03T13:53:33;10.33;;;5.70;;
4597;SDS011;62772;48.646;8.906;2022-10-03T13:58:51;9.13;;;5.40;;
4597;SDS011;62772;48.646;8.906;2022-10-03T14:04:16;11.70;;;5.10;;
4597;SDS011;62772;48.646;8.906;2022-10-03T14:09:49;9.87;;;5.50;;
4597;SDS011;62772;48.646;8.906;2022-10-03T14:15:18;9.43;;;5.40;;
4597;SDS011;62772;48.646;8.906;2022-10-03T14:20:29;10.00;;;4.57;;
4597;SDS011;62772;48.646;8.906;2022-10-03T14:25:37;12.20;;;5.40;;
4597;SDS011;62772;48.646;8.906;2022-10-03T14:30:47;8.57;;;5.60;;
4597;SDS011;62772;48.646;8.906;2022-10-03T14:36:02;10.60;;;6.03;;
4597;SDS011;62772;48.646;8.906;2022-10-03T14:41:14;8.47;;;5.30;;
4597;SDS011;62772;48.646;8.906;2022-10-03T14:46:23;9.23;;;4.73;;
4597;SDS011;62772;48.646;8.906;2022-10-03T14:51:28;9.37;;;5.30;;
4597;SDS011;62772;48.646;8.906;2022-10-03T14:56:33;9.73;;;5.30;;
4597;SDS011;62772;48.646;8.906;2022-10-03T15:01:48;8.57;;;5.07;;
4597;SDS011;62772;48.646;8.906;2022-10-03T15:06:52;8.40;;;5.10;;
4597;SDS011;62772;48.646;8.906;2022-10-03T15:11:55;11.60;;;4.97;;
4597;SDS011;62772;48.646;8.906;2022-10-03T15:17:06;12.40;;;5.40;;
4597;SDS011;62772;48.646;8.906;2022-10-03T15:27:39;11.00;;;5.83;;
4597;SDS011;62772;48.646;8.906;2022-10-03T15:32:45;7.33;;;4.90;;
4597;SDS011;62772;48.646;8.906;2022-10-03T15:37:49;15.57;;;5.30;;
4597;SDS011;62772;48.646;8.906;2022-10-03T15:42:52;10.33;;;5.27;;
4597;SDS011;62772;48.646;8.906;2022-10-03T15:48:11;8.83;;;5.37;;
4597;SDS011;62772;48.646;8.906;2022-10-03T15:53:19;11.47;;;4.57;;
4597;SDS011;62772;48.646;8.906;2022-10-03T15:58:23;9.23;;;5.33;;
4597;SDS011;62772;48.646;8.906;2022-10-03T16:03:32;8.80;;;4.90;;
4597;SDS011;62772;48.646;8.906;2022-10-03T16:08:43;11.17;;;5.60;;
4597;SDS011;62772;48.646;8.906;2022-10-03T16:13:57;8.43;;;4.90;;
4597;SDS011;62772;48.646;8.906;2022-10-03T16:24:40;7.80;;;4.43;;
4597;SDS011;62772;48.646;8.906;2022-10-03T16:29:52;7.20;;;4.70;;
4597;SDS011;62772;48.646;8.906;2022-10-03T16:35:24;10.03;;;4.90;;
4597;SDS011;62772;48.646;8.906;2022-10-03T16:40:29;11.73;;;4.77;;
4597;SDS011;62772;48.646;8.906;2022-10-03T16:45:32;9.80;;;6.23;;
4597;SDS011;62772;48.646;8.906;2022-10-03T16:50:42;11.90;;;5.70;;
4597;SDS011;62772;48.646;8.906;2022-10-03T16:55:49;13.37;;;4.90;;
4597;SDS011;62772;48.646;8.906;2022-10-03T17:00:55;18.20;;;6.17;;
4597;SDS011;62772;48.646;8.906;2022-10-03T17:06:03;15.20;;;6.90;;
4597;SDS011;62772;48.646;8.906;2022-10-03T17:11:07;11.60;;;6.73;;
4597;SDS011;62772;48.646;8.906;2022-10-03T17:16:18;14.40;;;6.67;;
4597;SDS011;62772;48.646;8.906;2022-10-03T17:21:30;12.67;;;6.97;;
4597;SDS011;62772;48.646;8.906;2022-10-03T17:26:33;20.70;;;8.70;;
4597;SDS011;62772;48.646;8.906;2022-10-03T17:31:40;13.67;;;7.83;;
4597;SDS011;62772;48.646;8.906;2022-10-03T17:36:58;13.10;;;7.53;;
4597;SDS011;62772;48.646;8.906;2022-10-03T17:42:14;12.40;;;7.20;;
4597;SDS011;62772;48.646;8.906;2022-10-03T17:47:31;17.77;;;9.57;;
4597;SDS011;62772;48.646;8.906;2022-10-03T17:52:42;14.63;;;8.20;;
4597;SDS011;62772;48.646;8.906;2022-10-03T17:57:46;12.83;;;8.27;;
4597;SDS011;62772;48.646;8.906;2022-10-03T18:02:53;18.10;;;11.10;;
4597;SDS011;62772;48.646;8.906;2022-10-03T18:08:03;20.97;;;11.00;;
4597;SDS011;62772;48.646;8.906;2022-10-03T18:13:08;18.97;;;9.67;;
4597;SDS011;62772;48.646;8.906;2022-10-03T18:24:03;17.67;;;10.67;;
4597;SDS011;62772;48.646;8.906;2022-10-03T18:29:22;20.30;;;10.67;;
4597;SDS011;62772;48.646;8.906;2022-10-03T18:34:31;15.00;;;9.40;;
4597;SDS011;62772;48.646;8.906;2022-10-03T18:39:37;11.87;;;7.70;;
4597;SDS011;62772;48.646;8.906;2022-10-03T18:44:40;11.43;;;6.90;;
4597;SDS011;62772;48.646;8.906;2022-10-03T18:49:45;16.20;;;6.93;;
4597;SDS011;62772;48.646;8.906;2022-10-03T18:55:02;11.87;;;7.70;;
4597;SDS011;62772;48.646;8.906;2022-10-03T19:00:12;14.00;;;7.67;;
4597;SDS011;62772;48.646;8.906;2022-10-03T19:05:18;10.50;;;7.10;;
4597;SDS011;62772;48.646;8.906;2022-10-03T19:10:32;13.27;;;6.90;;
4597;SDS011;62772;48.646;8.906;2022-10-03T19:15:39;13.83;;;6.33;;
4597;SDS011;62772;48.646;8.906;2022-10-03T19:20:48;16.27;;;6.80;;
4597;SDS011;62772;48.646;8.906;2022-10-03T19:25:55;12.90;;;8.20;;
4597;SDS011;62772;48.646;8.906;2022-10-03T19:31:01;10.60;;;7.00;;
4597;SDS011;62772;48.646;8.906;2022-10-03T19:36:05;12.60;;;6.93;;
4597;SDS011;62772;48.646;8.906;2022-10-03T19:41:19;10.27;;;7.00;;
4597;SDS011;62772;48.646;8.906;2022-10-03T19:46:29;12.87;;;7.57;;
4597;SDS011;62772;48.646;8.906;2022-10-03T19:51:37;12.93;;;7.03;;
4597;SDS011;62772;48.646;8.906;2022-10-03T19:56:41;9.83;;;6.50;;
4597;SDS011;62772;48.646;8.906;2022-10-03T20:01:42;9.63;;;6.27;;
4597;SDS011;62772;48.646;8.906;2022-10-03T20:06:44;10.40;;;7.40;;
4597;SDS011;62772;48.646;8.906;2022-10-03T20:11:51;10.33;;;7.00;;
4597;SDS011;62772;48.646;8.906;2022-10-03T20:16:58;11.67;;;7.03;;
4597;SDS011;62772;48.646;8.906;2022-10-03T20:22:02;9.70;;;6.90;;
4597;SDS011;62772;48.646;8.906;2022-10-03T20:27:11;10.47;;;7.47;;
4597;SDS011;62772;48.646;8.906;2022-10-03T20:32:23;11.83;;;7.57;;
4597;SDS011;62772;48.646;8.906;2022-10-03T20:37:29;12.37;;;7.60;;
4597;SDS011;62772;48.646;8.906;2022-10-03T20:42:42;13.87;;;7.27;;
4597;SDS011;62772;48.646;8.906;2022-10-03T20:47:48;10.40;;;6.50;;
4597;SDS011;62772;48.646;8.906;2022-10-03T20:52:56;12.47;;;6.87;;
4597;SDS011;62772;48.646;8.906;2022-10-03T20:58:04;10.67;;;7.07;;
4597;SDS011;62772;48.646;8.906;2022-10-03T21:03:14;11.07;;;6.50;;
4597;SDS011;62772;48.646;8.906;2022-10-03T21:08:27;8.10;;;5.90;;
4597;SDS011;62772;48.646;8.906;2022-10-03T21:13:34;8.70;;;5.97;;
4597;SDS011;62772;48.646;8.906;2022-10-03T21:18:38;11.93;;;6.00;;
4597;SDS011;62772;48.646;8.906;2022-10-03T21:23:42;9.27;;;5.77;;
4597;SDS011;62772;48.646;8.906;2022-10-03T21:28:50;8.53;;;6.03;;
4597;SDS011;62772;48.646;8.906;2022-10-03T21:34:17;10.13;;;6.20;;
4597;SDS011;62772;48.646;8.906;2022-10-03T21:39:25;11.40;;;5.17;;
4597;SDS011;62772;48.646;8.906;2022-10-03T21:44:40;8.63;;;6.00;;
4597;SDS011;62772;48.646;8.906;2022-10-03T21:49:54;9.27;;;5.03;;
4597;SDS011;62772;48.646;8.906;2022-10-03T21:55:03;10.90;;;5.47;;
4597;SDS011;62772;48.646;8.906;2022-10-03T22:00:24;8.67;;;4.97;;
4597;SDS011;62772;48.646;8.906;2022-10-03T22:05:28;11.57;;;5.47;;
4597;SDS011;62772;48.646;8.906;2022-10-03T22:10:39;9.80;;;5.23;;
4597;SDS011;62772;48.646;8.906;2022-10-03T22:15:55;10.33;;;6.13;;
4597;SDS011;62772;48.646;8.906;2022-10-03T22:21:04;10.40;;;6.03;;
4597;SDS011;62772;48.646;8.906;2022-10-03T22:26:14;7.93;;;5.60;;
4597;SDS011;62772;48.646;8.906;2022-10-03T22:31:24;11.50;;;5.93;;
4597;SDS011;62772;48.646;8.906;2022-10-03T22:36:32;9.53;;;4.83;;
4597;SDS011;62772;48.646;8.906;2022-10-03T22:41:34;12.53;;;5.27;;
4597;SDS011;62772;48.646;8.906;2022-10-03T22:46:40;9.87;;;5.67;;
4597;SDS011;62772;48.646;8.906;2022-10-03T22:51:45;8.20;;;5.20;;
4597;SDS011;62772;48.646;8.906;2022-10-03T22:56:47;7.30;;;5.27;;
4597;SDS011;62772;48.646;8.906;2022-10-03T23:01:57;9.03;;;5.43;;
4597;SDS011;62772;48.646;8.906;2022-10-03T23:07:04;8.53;;;5.67;;
4597;SDS011;62772;48.646;8.906;2022-10-03T23:12:20;9.70;;;5.23;;
4597;SDS011;62772;48.646;8.906;2022-10-03T23:17:30;8.00;;;5.40;;
4597;SDS011;62772;48.646;8.906;2022-10-03T23:22:44;8.20;;;5.60;;
4597;SDS011;62772;48.646;8.906;2022-10-03T23:27:57;6.37;;;5.20;;
4597;SDS011;62772;48.646;8.906;2022-10-03T23:33:09;9.03;;;5.87;;
4597;SDS011;62772;48.646;8.906;2022-10-03T23:43:47;9.30;;;5.57;;
4597;SDS011;62772;48.646;8.906;2022-10-03T23:48:52;9.17;;;5.57;;
4597;SDS011;62772;48.646;8.906;2022-10-03T23:53:55;9.30;;;5.17;;
4597;SDS011;62772;48.646;8.906;2022-10-03T23:59:10;8.57;;;5.63;;
